createdAt,value
2023-03-02T00:00:48.275Z,46.49
2023-03-02T00:01:50.120Z,45.27
2023-03-02T00:02:51.989Z,46.79
2023-03-02T00:03:53.798Z,45.19
2023-03-02T00:04:55.652Z,42.79
2023-03-02T00:05:57.459Z,43.95
2023-03-02T00:06:59.310Z,44.21
2023-03-02T00:08:01.104Z,47.66
2023-03-02T00:09:02.898Z,42.26
2023-03-02T00:10:04.812Z,43.01
2023-03-02T00:11:06.610Z,38.30
2023-03-02T00:12:08.479Z,39.30
2023-03-02T00:13:10.292Z,37.41
2023-03-02T00:14:12.099Z,32.37
2023-03-02T00:15:13.897Z,34.35
2023-03-02T00:16:15.771Z,31.71
2023-03-02T00:17:17.655Z,32.68
2023-03-02T00:18:19.488Z,34.06
2023-03-02T00:19:21.290Z,29.53
2023-03-02T00:20:23.088Z,32.53
2023-03-02T00:21:24.910Z,31.35
2023-03-02T00:22:26.765Z,34.24
2023-03-02T00:23:28.558Z,30.11
2023-03-02T00:24:30.360Z,32.85
2023-03-02T00:25:32.167Z,34.27
2023-03-02T00:26:34.333Z,33.99
2023-03-02T00:27:36.414Z,34.83
2023-03-02T00:28:38.241Z,32.96
2023-03-02T00:29:40.033Z,35.82
2023-03-02T00:30:41.830Z,47.19
2023-03-02T00:31:43.698Z,58.30
2023-03-02T00:32:45.497Z,43.67
2023-03-02T00:33:47.315Z,38.17
2023-03-02T00:34:49.103Z,40.31
2023-03-02T00:35:50.964Z,34.11
2023-03-02T00:36:52.719Z,34.24
2023-03-02T00:37:54.562Z,34.90
2023-03-02T00:38:56.390Z,36.24
2023-03-02T00:39:58.196Z,38.84
2023-03-02T00:40:59.992Z,40.42
2023-03-02T00:42:01.812Z,39.88
2023-03-02T00:43:03.689Z,38.41
2023-03-02T00:44:05.465Z,32.96
2023-03-02T00:45:07.268Z,28.86
2023-03-02T00:46:09.763Z,32.77
2023-03-02T00:47:11.583Z,36.19
2023-03-02T00:48:13.447Z,39.54
2023-03-02T00:49:15.261Z,39.85
2023-03-02T00:50:17.157Z,40.45
2023-03-02T00:51:18.970Z,41.69
2023-03-02T00:52:20.768Z,40.77
2023-03-02T00:53:22.642Z,37.33
2023-03-02T00:54:24.560Z,33.49
2023-03-02T00:55:26.360Z,34.51
2023-03-02T00:56:28.186Z,32.21
2023-03-02T00:57:29.991Z,33.33
2023-03-02T00:58:31.844Z,32.76
2023-03-02T00:59:33.657Z,33.95
2023-03-02T01:00:35.465Z,31.50
2023-03-02T01:01:37.265Z,30.63
2023-03-02T01:02:39.253Z,31.17
2023-03-02T01:03:41.117Z,33.19
2023-03-02T01:04:42.933Z,33.93
2023-03-02T01:05:44.733Z,33.35
2023-03-02T01:06:46.560Z,35.81
2023-03-02T01:07:48.345Z,34.51
2023-03-02T01:08:50.201Z,33.31
2023-03-02T01:09:52.006Z,34.97
2023-03-02T01:10:54.422Z,34.17
2023-03-02T01:11:56.236Z,30.45
2023-03-02T01:12:58.061Z,35.20
2023-03-02T01:13:59.913Z,34.54
2023-03-02T01:15:01.705Z,33.42
2023-03-02T01:16:03.557Z,37.65
2023-03-02T01:17:05.414Z,36.19
2023-03-02T01:18:07.236Z,33.51
2023-03-02T01:19:09.096Z,36.99
2023-03-02T01:20:11.210Z,30.80
2023-03-02T01:21:13.029Z,36.66
2023-03-02T01:22:14.827Z,37.87
2023-03-02T01:23:16.622Z,39.59
2023-03-02T01:24:18.489Z,35.90
2023-03-02T01:25:20.207Z,35.82
2023-03-02T01:26:22.115Z,40.34
2023-03-02T01:27:23.927Z,40.51
2023-03-02T01:28:25.716Z,41.20
2023-03-02T01:29:27.572Z,47.65
2023-03-02T01:30:29.375Z,42.09
2023-03-02T01:31:31.302Z,40.99
2023-03-02T01:32:33.121Z,40.57
2023-03-02T01:33:35.006Z,44.61
2023-03-02T01:34:36.843Z,49.51
2023-03-02T01:35:38.673Z,44.68
2023-03-02T01:36:40.464Z,47.27
2023-03-02T01:37:42.154Z,45.48
2023-03-02T01:38:45.152Z,43.82
2023-03-02T01:39:47.058Z,45.28
2023-03-02T01:40:48.824Z,43.16
2023-03-02T01:41:50.616Z,45.49
2023-03-02T01:42:52.469Z,49.83
2023-03-02T01:43:54.245Z,43.63
2023-03-02T01:44:56.091Z,41.11
2023-03-02T01:45:58.032Z,44.11
2023-03-02T01:46:59.895Z,43.30
2023-03-02T01:48:01.698Z,46.92
2023-03-02T01:49:03.492Z,45.24
2023-03-02T01:50:05.675Z,46.38
2023-03-02T01:51:07.464Z,46.60
2023-03-02T01:52:09.256Z,43.99
2023-03-02T01:53:11.056Z,38.68
2023-03-02T01:54:12.859Z,43.46
2023-03-02T01:55:14.711Z,41.75
2023-03-02T01:56:16.524Z,38.67
2023-03-02T01:57:18.326Z,45.59
2023-03-02T01:58:20.137Z,41.92
2023-03-02T01:59:21.931Z,44.23
2023-03-02T02:00:23.798Z,51.03
2023-03-02T02:01:25.661Z,52.28
2023-03-02T02:02:27.506Z,58.28
2023-03-02T02:03:29.299Z,52.87
2023-03-02T02:04:31.114Z,53.71
2023-03-02T02:05:32.983Z,56.37
2023-03-02T02:06:35.012Z,56.73
2023-03-02T02:07:36.895Z,57.41
2023-03-02T02:08:38.722Z,63.45
2023-03-02T02:09:40.503Z,64.76
2023-03-02T02:10:42.546Z,53.38
2023-03-02T02:11:44.362Z,54.85
2023-03-02T02:12:46.135Z,49.51
2023-03-02T02:13:47.980Z,53.27
2023-03-02T02:14:49.749Z,45.11
2023-03-02T02:15:51.614Z,54.03
2023-03-02T02:16:53.444Z,53.41
2023-03-02T02:17:55.203Z,62.39
2023-03-02T02:18:57.005Z,55.09
2023-03-02T02:19:58.798Z,52.53
2023-03-02T02:21:00.858Z,54.42
2023-03-02T02:22:02.666Z,52.05
2023-03-02T02:23:04.452Z,53.93
2023-03-02T02:24:06.336Z,51.43
2023-03-02T02:25:08.149Z,49.37
2023-03-02T02:26:10.048Z,49.53
2023-03-02T02:27:11.809Z,47.59
2023-03-02T02:28:13.612Z,49.31
2023-03-02T02:29:15.418Z,52.03
2023-03-02T02:30:17.223Z,48.67
2023-03-02T02:31:19.134Z,54.70
2023-03-02T02:32:21.097Z,45.81
2023-03-02T02:33:22.994Z,41.27
2023-03-02T02:34:24.890Z,42.55
2023-03-02T02:35:26.688Z,44.10
2023-03-02T02:36:28.534Z,41.55
2023-03-02T02:37:30.347Z,43.79
2023-03-02T02:38:32.153Z,42.16
2023-03-02T02:39:33.945Z,37.36
2023-03-02T02:40:35.747Z,37.69
2023-03-02T02:41:37.596Z,42.17
2023-03-02T02:42:39.425Z,49.35
2023-03-02T02:43:41.222Z,48.18
2023-03-02T02:44:42.908Z,47.06
2023-03-02T02:45:44.787Z,45.08
2023-03-02T02:46:46.682Z,46.18
2023-03-02T02:47:48.497Z,44.80
2023-03-02T02:48:50.303Z,47.55
2023-03-02T02:49:52.091Z,45.31
2023-03-02T02:50:53.885Z,45.26
2023-03-02T02:51:55.741Z,41.79
2023-03-02T02:52:57.544Z,46.99
2023-03-02T02:53:59.353Z,42.80
2023-03-02T02:55:01.139Z,46.50
2023-03-02T02:56:03.173Z,43.37
2023-03-02T02:57:05.020Z,39.69
2023-03-02T02:58:06.812Z,40.69
2023-03-02T02:59:08.619Z,43.37
2023-03-02T03:00:10.931Z,38.71
2023-03-02T03:01:12.778Z,36.84
2023-03-02T03:02:14.784Z,36.76
2023-03-02T03:03:16.593Z,36.81
2023-03-02T03:04:18.411Z,37.31
2023-03-02T03:05:20.199Z,35.79
2023-03-02T03:06:22.010Z,34.95
2023-03-02T03:07:23.866Z,34.43
2023-03-02T03:08:25.670Z,29.74
2023-03-02T03:09:27.536Z,29.81
2023-03-02T03:10:29.363Z,29.07
2023-03-02T03:11:31.168Z,28.11
2023-03-02T03:12:33.136Z,27.04
2023-03-02T03:13:34.937Z,28.37
2023-03-02T03:14:36.739Z,27.72
2023-03-02T03:15:38.541Z,30.81
2023-03-02T03:16:40.379Z,28.06
2023-03-02T03:17:42.210Z,27.23
2023-03-02T03:18:44.004Z,28.01
2023-03-02T03:19:45.801Z,26.99
2023-03-02T03:20:47.607Z,26.32
2023-03-02T03:21:49.420Z,24.35
2023-03-02T03:22:51.269Z,31.37
2023-03-02T03:23:53.069Z,30.49
2023-03-02T03:24:54.874Z,27.75
2023-03-02T03:25:56.693Z,29.23
2023-03-02T03:26:58.502Z,29.66
2023-03-02T03:28:00.339Z,26.09
2023-03-02T03:29:02.135Z,25.65
2023-03-02T03:30:04.188Z,28.40
2023-03-02T03:31:06.085Z,30.39
2023-03-02T03:32:07.899Z,27.69
2023-03-02T03:33:09.739Z,26.07
2023-03-02T03:34:11.556Z,25.27
2023-03-02T03:35:13.376Z,24.77
2023-03-02T03:36:15.688Z,24.05
2023-03-02T03:37:17.495Z,23.79
2023-03-02T03:38:19.340Z,25.89
2023-03-02T03:39:21.159Z,24.04
2023-03-02T03:40:23.043Z,23.77
2023-03-02T03:41:24.851Z,24.29
2023-03-02T03:42:26.664Z,26.05
2023-03-02T03:43:28.512Z,23.75
2023-03-02T03:44:30.310Z,22.51
2023-03-02T03:45:32.327Z,26.15
2023-03-02T03:46:34.621Z,30.43
2023-03-02T03:47:36.665Z,23.38
2023-03-02T03:48:38.502Z,26.33
2023-03-02T03:49:40.303Z,25.32
2023-03-02T03:50:42.119Z,24.60
2023-03-02T03:51:43.912Z,21.00
2023-03-02T03:52:45.750Z,27.07
2023-03-02T03:53:47.591Z,25.83
2023-03-02T03:54:49.401Z,21.67
2023-03-02T03:55:51.202Z,23.44
2023-03-02T03:56:53.034Z,25.19
2023-03-02T03:57:54.854Z,24.60
2023-03-02T03:58:56.715Z,25.94
2023-03-02T03:59:58.506Z,23.87
2023-03-02T04:01:00.312Z,23.17
2023-03-02T04:02:02.124Z,23.83
2023-03-02T04:03:03.942Z,24.06
2023-03-02T04:04:05.785Z,27.66
2023-03-02T04:05:07.602Z,24.80
2023-03-02T04:06:09.702Z,26.09
2023-03-02T04:07:11.502Z,23.74
2023-03-02T04:08:13.204Z,28.01
2023-03-02T04:09:15.054Z,27.45
2023-03-02T04:10:16.965Z,24.31
2023-03-02T04:11:18.780Z,22.97
2023-03-02T04:12:20.597Z,24.19
2023-03-02T04:13:22.487Z,21.61
2023-03-02T04:14:24.382Z,23.76
2023-03-02T04:15:26.240Z,23.51
2023-03-02T04:16:28.006Z,24.21
2023-03-02T04:17:29.812Z,26.49
2023-03-02T04:18:31.611Z,28.43
2023-03-02T04:19:33.466Z,28.87
2023-03-02T04:20:35.295Z,35.27
2023-03-02T04:21:37.102Z,32.23
2023-03-02T04:22:38.899Z,38.07
2023-03-02T04:23:40.720Z,44.70
2023-03-02T04:24:42.582Z,48.28
2023-03-02T04:25:44.379Z,40.34
2023-03-02T04:26:46.196Z,44.68
2023-03-02T04:27:47.990Z,40.84
2023-03-02T04:28:49.820Z,40.46
2023-03-02T04:29:51.781Z,41.31
2023-03-02T04:30:53.688Z,43.17
2023-03-02T04:31:55.617Z,50.81
2023-03-02T04:32:57.437Z,37.29
2023-03-02T04:33:59.226Z,38.10
2023-03-02T04:35:01.084Z,40.49
2023-03-02T04:36:02.920Z,39.21
2023-03-02T04:37:04.710Z,41.60
2023-03-02T04:38:06.519Z,38.68
2023-03-02T04:39:08.322Z,38.03
2023-03-02T04:40:10.693Z,31.92
2023-03-02T04:41:12.492Z,32.82
2023-03-02T04:42:14.307Z,31.21
2023-03-02T04:43:16.132Z,27.83
2023-03-02T04:44:17.945Z,25.95
2023-03-02T04:45:19.797Z,27.10
2023-03-02T04:46:21.693Z,23.67
2023-03-02T04:47:23.518Z,23.39
2023-03-02T04:48:25.495Z,26.65
2023-03-02T04:49:27.301Z,28.56
2023-03-02T04:50:29.141Z,24.29
2023-03-02T04:51:30.975Z,24.61
2023-03-02T04:52:32.796Z,25.69
2023-03-02T04:53:34.583Z,27.26
2023-03-02T04:54:36.381Z,29.13
2023-03-02T04:55:38.221Z,24.61
2023-03-02T04:56:40.042Z,27.34
2023-03-02T04:57:41.847Z,31.01
2023-03-02T04:58:43.640Z,33.47
2023-03-02T04:59:45.447Z,32.75
2023-03-02T05:00:47.371Z,35.81
2023-03-02T05:01:49.303Z,36.29
2023-03-02T05:02:51.419Z,32.70
2023-03-02T05:03:53.245Z,36.39
2023-03-02T05:04:55.152Z,45.24
2023-03-02T05:05:57.073Z,41.26
2023-03-02T05:06:59.095Z,40.47
2023-03-02T05:08:00.811Z,37.95
2023-03-02T05:09:02.597Z,33.21
2023-03-02T05:10:04.606Z,33.14
2023-03-02T05:11:06.470Z,31.92
2023-03-02T05:12:08.265Z,31.68
2023-03-02T05:13:10.067Z,29.03
2023-03-02T05:14:11.883Z,28.45
2023-03-02T05:15:13.701Z,35.45
2023-03-02T05:16:15.706Z,28.54
2023-03-02T05:17:17.570Z,29.35
2023-03-02T05:18:19.368Z,30.22
2023-03-02T05:19:21.181Z,32.15
2023-03-02T05:20:22.986Z,33.12
2023-03-02T05:21:24.818Z,31.43
2023-03-02T05:22:26.626Z,30.76
2023-03-02T05:23:28.441Z,33.10
2023-03-02T05:24:30.239Z,38.56
2023-03-02T05:25:32.051Z,41.97
2023-03-02T05:26:34.274Z,41.44
2023-03-02T05:27:36.247Z,40.47
2023-03-02T05:28:38.048Z,42.00
2023-03-02T05:29:39.855Z,37.94
2023-03-02T05:30:41.667Z,37.61
2023-03-02T05:31:43.589Z,39.17
2023-03-02T05:32:45.341Z,43.71
2023-03-02T05:33:47.134Z,38.34
2023-03-02T05:34:48.957Z,38.71
2023-03-02T05:35:50.843Z,40.49
2023-03-02T05:36:52.754Z,35.12
2023-03-02T05:37:54.559Z,33.56
2023-03-02T05:38:56.361Z,32.73
2023-03-02T05:39:58.181Z,32.83
2023-03-02T05:40:59.988Z,30.91
2023-03-02T05:42:01.848Z,30.73
2023-03-02T05:43:03.653Z,30.65
2023-03-02T05:44:05.476Z,28.45
2023-03-02T05:45:07.281Z,28.42
2023-03-02T05:46:09.302Z,28.87
2023-03-02T05:47:11.179Z,26.07
2023-03-02T05:48:12.973Z,27.49
2023-03-02T05:49:14.775Z,30.44
2023-03-02T05:50:16.782Z,31.17
2023-03-02T05:51:18.586Z,29.35
2023-03-02T05:52:20.438Z,33.17
2023-03-02T05:53:22.298Z,58.12
2023-03-02T05:54:24.100Z,70.91
2023-03-02T05:55:25.894Z,63.57
2023-03-02T05:56:27.715Z,58.61
2023-03-02T05:57:29.586Z,54.07
2023-03-02T05:58:31.376Z,41.56
2023-03-02T05:59:33.176Z,35.17
2023-03-02T06:00:34.986Z,35.90
2023-03-02T06:01:36.854Z,34.01
2023-03-02T06:02:38.669Z,28.79
2023-03-02T06:03:40.449Z,28.03
2023-03-02T06:04:42.238Z,25.73
2023-03-02T06:05:44.047Z,27.97
2023-03-02T06:06:45.955Z,27.28
2023-03-02T06:07:47.788Z,24.98
2023-03-02T06:08:49.612Z,27.11
2023-03-02T06:09:51.398Z,27.93
2023-03-02T06:10:53.205Z,28.02
2023-03-02T06:11:55.020Z,27.25
2023-03-02T06:12:56.868Z,30.22
2023-03-02T06:13:58.684Z,21.68
2023-03-02T06:15:00.568Z,23.10
2023-03-02T06:16:02.436Z,26.69
2023-03-02T06:17:04.278Z,26.72
2023-03-02T06:18:06.135Z,26.85
2023-03-02T06:19:07.954Z,23.73
2023-03-02T06:20:09.967Z,23.31
2023-03-02T06:21:11.817Z,23.61
2023-03-02T06:22:13.617Z,22.73
2023-03-02T06:23:15.580Z,20.21
2023-03-02T06:24:17.382Z,23.52
2023-03-02T06:25:19.181Z,21.38
2023-03-02T06:26:21.104Z,22.90
2023-03-02T06:27:22.914Z,24.39
2023-03-02T06:28:24.762Z,24.84
2023-03-02T06:29:26.576Z,26.89
2023-03-02T06:30:28.378Z,22.87
2023-03-02T06:31:30.190Z,22.65
2023-03-02T06:32:32.010Z,23.47
2023-03-02T06:33:33.825Z,22.13
2023-03-02T06:34:35.629Z,20.84
2023-03-02T06:35:37.553Z,22.57
2023-03-02T06:36:39.600Z,21.07
2023-03-02T06:37:44.057Z,21.09
2023-03-02T06:38:45.143Z,20.69
2023-03-02T06:39:46.965Z,21.08
2023-03-02T06:40:48.743Z,19.77
2023-03-02T06:41:50.548Z,21.21
2023-03-02T06:42:52.345Z,20.77
2023-03-02T06:43:54.207Z,21.55
2023-03-02T06:44:56.030Z,25.93
2023-03-02T06:45:57.855Z,24.56
2023-03-02T06:46:59.637Z,23.21
2023-03-02T06:48:01.430Z,22.43
2023-03-02T06:49:03.281Z,19.57
2023-03-02T06:50:05.099Z,22.58
2023-03-02T06:51:06.876Z,24.35
2023-03-02T06:52:08.715Z,19.05
2023-03-02T06:53:10.542Z,23.48
2023-03-02T06:54:12.394Z,21.37
2023-03-02T06:55:14.193Z,20.30
2023-03-02T06:56:16.209Z,18.91
2023-03-02T06:57:17.995Z,17.59
2023-03-02T06:58:19.810Z,18.95
2023-03-02T06:59:21.664Z,18.62
2023-03-02T07:00:25.657Z,18.27
2023-03-02T07:01:27.140Z,19.42
2023-03-02T07:02:29.012Z,18.77
2023-03-02T07:03:30.873Z,19.23
2023-03-02T07:04:32.669Z,18.07
2023-03-02T07:05:34.478Z,15.12
2023-03-02T07:06:36.279Z,19.36
2023-03-02T07:07:38.074Z,18.19
2023-03-02T07:08:39.921Z,16.57
2023-03-02T07:09:41.786Z,16.48
2023-03-02T07:10:43.578Z,16.19
2023-03-02T07:11:45.374Z,14.11
2023-03-02T07:12:47.385Z,15.07
2023-03-02T07:13:49.207Z,17.84
2023-03-02T07:14:51.050Z,16.22
2023-03-02T07:15:52.859Z,20.00
2023-03-02T07:16:54.909Z,18.30
2023-03-02T07:17:56.677Z,20.36
2023-03-02T07:18:58.471Z,22.76
2023-03-02T07:20:00.310Z,18.79
2023-03-02T07:21:02.107Z,15.58
2023-03-02T07:22:03.922Z,17.95
2023-03-02T07:23:05.726Z,17.64
2023-03-02T07:24:07.541Z,19.58
2023-03-02T07:25:09.376Z,18.18
2023-03-02T07:26:11.473Z,15.71
2023-03-02T07:27:13.299Z,16.60
2023-03-02T07:28:15.087Z,16.18
2023-03-02T07:29:16.908Z,14.56
2023-03-02T07:30:18.886Z,15.36
2023-03-02T07:31:20.718Z,16.30
2023-03-02T07:32:22.579Z,12.55
2023-03-02T07:33:24.424Z,11.31
2023-03-02T07:34:26.765Z,13.17
2023-03-02T07:35:28.770Z,14.23
2023-03-02T07:36:30.618Z,14.57
2023-03-02T07:37:32.412Z,12.78
2023-03-02T07:38:34.219Z,13.16
2023-03-02T07:39:36.021Z,10.99
2023-03-02T07:40:37.886Z,15.17
2023-03-02T07:41:39.688Z,11.96
2023-03-02T07:42:41.495Z,12.07
2023-03-02T07:43:43.321Z,10.45
2023-03-02T07:44:45.127Z,12.81
2023-03-02T07:45:46.979Z,10.14
2023-03-02T07:46:48.867Z,10.56
2023-03-02T07:47:50.813Z,12.86
2023-03-02T07:48:52.629Z,12.13
2023-03-02T07:49:54.435Z,12.44
2023-03-02T07:50:56.289Z,9.21
2023-03-02T07:51:58.108Z,10.01
2023-03-02T07:53:00.162Z,10.11
2023-03-02T07:54:02.046Z,8.35
2023-03-02T07:55:03.838Z,11.32
2023-03-02T07:56:05.791Z,10.37
2023-03-02T07:57:07.621Z,9.84
2023-03-02T07:58:09.426Z,11.97
2023-03-02T07:59:11.228Z,11.61
2023-03-02T08:00:14.151Z,12.55
2023-03-02T08:01:16.052Z,13.34
2023-03-02T08:02:17.847Z,11.04
2023-03-02T08:03:19.648Z,11.79
2023-03-02T08:04:21.475Z,13.75
2023-03-02T08:05:23.285Z,13.05
2023-03-02T08:06:25.127Z,14.86
2023-03-02T08:07:26.958Z,10.41
2023-03-02T08:08:28.759Z,15.05
2023-03-02T08:09:30.580Z,13.02
2023-03-02T08:10:32.582Z,8.18
2023-03-02T08:11:34.729Z,10.87
2023-03-02T08:12:36.744Z,13.29
2023-03-02T08:13:38.591Z,9.79
2023-03-02T08:14:40.400Z,8.11
2023-03-02T08:15:42.200Z,11.08
2023-03-02T08:16:44.341Z,10.27
2023-03-02T08:17:46.166Z,10.28
2023-03-02T08:18:48.069Z,9.97
2023-03-02T08:19:49.914Z,14.09
2023-03-02T08:20:51.831Z,16.41
2023-03-02T08:21:53.719Z,10.71
2023-03-02T08:22:55.504Z,8.57
2023-03-02T08:23:57.331Z,9.23
2023-03-02T08:24:59.109Z,6.46
2023-03-02T08:26:00.914Z,6.46
2023-03-02T08:27:02.777Z,7.35
2023-03-02T08:28:04.601Z,7.03
2023-03-02T08:29:06.396Z,6.11
2023-03-02T08:30:09.019Z,6.03
2023-03-02T08:31:10.959Z,6.13
2023-03-02T08:32:13.076Z,7.57
2023-03-02T08:33:14.949Z,8.60
2023-03-02T08:34:16.772Z,8.43
2023-03-02T08:35:18.603Z,6.25
2023-03-02T08:36:20.400Z,7.66
2023-03-02T08:37:22.265Z,7.20
2023-03-02T08:38:24.069Z,8.10
2023-03-02T08:39:27.379Z,6.47
2023-03-02T08:40:29.497Z,6.01
2023-03-02T08:41:31.517Z,6.81
2023-03-02T08:42:33.642Z,5.93
2023-03-02T08:43:35.473Z,7.48
2023-03-02T08:44:37.385Z,7.45
2023-03-02T08:45:39.223Z,6.85
2023-03-02T08:46:41.009Z,9.24
2023-03-02T08:47:42.849Z,6.36
2023-03-02T08:48:44.656Z,8.13
2023-03-02T08:49:48.001Z,9.54
2023-03-02T08:50:50.199Z,7.01
2023-03-02T08:51:51.993Z,7.87
2023-03-02T08:52:53.842Z,11.05
2023-03-02T08:53:55.667Z,8.13
2023-03-02T08:54:57.501Z,6.95
2023-03-02T08:56:01.092Z,8.70
2023-03-02T08:57:03.125Z,10.94
2023-03-02T08:58:04.955Z,11.15
2023-03-02T08:59:06.772Z,8.82
2023-03-02T09:00:09.599Z,12.05
2023-03-02T09:01:11.446Z,8.48
2023-03-02T09:02:13.223Z,8.19
2023-03-02T09:03:15.080Z,9.07
2023-03-02T09:04:17.029Z,9.32
2023-03-02T09:05:18.869Z,10.29
2023-03-02T09:06:20.711Z,14.57
2023-03-02T09:07:22.519Z,24.84
2023-03-02T09:08:24.352Z,21.11
2023-03-02T09:09:26.180Z,15.18
2023-03-02T09:10:27.979Z,12.87
2023-03-02T09:11:29.804Z,12.59
2023-03-02T09:12:31.609Z,11.12
2023-03-02T09:13:33.453Z,13.76
2023-03-02T09:14:35.260Z,9.90
2023-03-02T09:15:37.082Z,7.32
2023-03-02T09:16:39.061Z,9.11
2023-03-02T09:17:40.898Z,8.51
2023-03-02T09:18:42.751Z,23.77
2023-03-02T09:19:44.786Z,25.48
2023-03-02T09:20:46.679Z,12.81
2023-03-02T09:21:48.473Z,15.56
2023-03-02T09:22:50.290Z,12.69
2023-03-02T09:23:52.138Z,9.68
2023-03-02T09:24:53.964Z,11.10
2023-03-02T09:25:55.774Z,7.49
2023-03-02T09:26:57.572Z,8.27
2023-03-02T09:27:59.387Z,10.99
2023-03-02T09:29:01.236Z,11.53
2023-03-02T09:30:03.250Z,10.11
2023-03-02T09:31:05.087Z,9.51
2023-03-02T09:32:07.033Z,12.71
2023-03-02T09:33:08.957Z,10.35
2023-03-02T09:34:10.772Z,21.21
2023-03-02T09:35:12.570Z,16.87
2023-03-02T09:36:14.907Z,13.56
2023-03-02T09:37:16.726Z,9.89
2023-03-02T09:38:18.590Z,11.45
2023-03-02T09:39:20.584Z,9.37
2023-03-02T09:40:22.384Z,11.20
2023-03-02T09:41:24.193Z,27.41
2023-03-02T09:42:38.099Z,17.46
2023-03-02T09:43:29.626Z,13.85
2023-03-02T09:44:31.496Z,12.20
2023-03-02T09:45:33.315Z,11.43
2023-03-02T09:46:35.104Z,11.09
2023-03-02T09:47:36.925Z,9.50
2023-03-02T09:48:38.727Z,9.07
2023-03-02T09:49:40.599Z,8.36
2023-03-02T09:50:42.591Z,8.09
2023-03-02T09:51:44.406Z,13.84
2023-03-02T09:52:46.240Z,12.28
2023-03-02T09:53:48.043Z,18.20
2023-03-02T09:54:49.912Z,10.83
2023-03-02T09:55:51.718Z,14.07
2023-03-02T09:56:53.638Z,11.92
2023-03-02T09:57:55.470Z,8.11
2023-03-02T09:58:57.269Z,10.48
2023-03-02T10:00:04.013Z,7.99
2023-03-02T10:01:02.752Z,10.61
2023-03-02T10:02:04.609Z,11.63
2023-03-02T10:03:16.766Z,8.14
2023-03-02T10:04:10.138Z,11.02
2023-03-02T10:05:12.052Z,9.81
2023-03-02T10:06:14.081Z,8.19
2023-03-02T10:07:15.993Z,7.93
2023-03-02T10:08:17.820Z,8.77
2023-03-02T10:09:19.643Z,8.93
2023-03-02T10:10:21.621Z,7.13
2023-03-02T10:11:23.452Z,5.64
2023-03-02T10:12:25.243Z,7.89
2023-03-02T10:13:27.061Z,6.69
2023-03-02T10:14:28.884Z,8.11
2023-03-02T10:15:30.781Z,7.09
2023-03-02T10:16:33.236Z,5.61
2023-03-02T10:17:35.333Z,6.80
2023-03-02T10:18:37.176Z,7.90
2023-03-02T10:19:38.982Z,7.44
2023-03-02T10:20:40.850Z,8.86
2023-03-02T10:21:42.650Z,8.81
2023-03-02T10:22:44.472Z,7.51
2023-03-02T10:23:46.298Z,7.03
2023-03-02T10:24:48.108Z,7.96
2023-03-02T10:25:49.957Z,5.03
2023-03-02T10:26:51.873Z,9.27
2023-03-02T10:27:53.761Z,7.07
2023-03-02T10:28:55.659Z,9.34
2023-03-02T10:29:57.500Z,7.05
2023-03-02T10:30:59.519Z,7.54
2023-03-02T10:32:01.373Z,6.66
2023-03-02T10:33:03.134Z,7.02
2023-03-02T10:34:04.958Z,7.63
2023-03-02T10:35:06.780Z,7.89
2023-03-02T10:36:08.641Z,7.69
2023-03-02T10:37:10.459Z,8.86
2023-03-02T10:38:12.267Z,6.42
2023-03-02T10:39:14.088Z,5.59
2023-03-02T10:40:16.450Z,8.02
2023-03-02T10:41:18.362Z,5.92
2023-03-02T10:42:20.151Z,6.51
2023-03-02T10:43:21.909Z,4.28
2023-03-02T10:44:23.830Z,6.80
2023-03-02T10:45:25.604Z,7.20
2023-03-02T10:46:27.477Z,7.49
2023-03-02T10:47:29.333Z,7.19
2023-03-02T10:48:31.310Z,9.39
2023-03-02T10:49:33.147Z,5.69
2023-03-02T10:50:34.965Z,8.48
2023-03-02T10:51:36.857Z,8.00
2023-03-02T10:52:42.367Z,8.49
2023-03-02T10:53:42.724Z,7.51
2023-03-02T10:54:44.550Z,10.80
2023-03-02T10:55:46.341Z,8.26
2023-03-02T10:56:48.301Z,7.43
2023-03-02T10:57:50.144Z,8.15
2023-03-02T10:58:51.958Z,8.39
2023-03-02T10:59:53.799Z,7.81
2023-03-02T11:00:55.886Z,8.37
2023-03-02T11:01:57.882Z,6.81
2023-03-02T11:02:59.723Z,8.78
2023-03-02T11:04:01.534Z,7.55
2023-03-02T11:05:03.680Z,7.14
2023-03-02T11:06:05.698Z,9.01
2023-03-02T11:07:07.565Z,7.93
2023-03-02T11:08:09.351Z,8.91
2023-03-02T11:09:11.155Z,10.23
2023-03-02T11:10:13.989Z,7.90
2023-03-02T11:11:15.803Z,9.54
2023-03-02T11:12:17.666Z,6.91
2023-03-02T11:13:19.459Z,8.49
2023-03-02T11:14:21.258Z,8.78
2023-03-02T11:15:23.107Z,8.25
2023-03-02T11:16:25.040Z,6.47
2023-03-02T11:17:26.870Z,7.64
2023-03-02T11:18:28.667Z,8.11
2023-03-02T11:19:30.492Z,6.98
2023-03-02T11:20:32.288Z,9.33
2023-03-02T11:21:34.384Z,10.81
2023-03-02T11:22:36.468Z,11.44
2023-03-02T11:23:38.184Z,10.93
2023-03-02T11:24:39.978Z,11.61
2023-03-02T11:25:41.780Z,12.17
2023-03-02T11:26:43.583Z,9.97
2023-03-02T11:27:45.444Z,9.39
2023-03-02T11:28:47.262Z,10.95
2023-03-02T11:29:49.067Z,9.79
2023-03-02T11:30:50.990Z,9.57
2023-03-02T11:31:52.895Z,9.37
2023-03-02T11:32:55.780Z,7.31
2023-03-02T11:33:59.823Z,8.16
2023-03-02T11:35:01.243Z,9.35
2023-03-02T11:36:03.212Z,11.14
2023-03-02T11:37:05.078Z,10.14
2023-03-02T11:38:06.931Z,12.76
2023-03-02T11:39:08.744Z,11.71
2023-03-02T11:40:11.060Z,6.74
2023-03-02T11:41:12.866Z,8.71
2023-03-02T11:42:14.690Z,8.57
2023-03-02T11:43:16.540Z,8.97
2023-03-02T11:44:18.358Z,7.00
2023-03-02T11:45:20.149Z,7.60
2023-03-02T11:46:23.332Z,8.37
2023-03-02T11:47:25.735Z,9.58
2023-03-02T11:48:27.631Z,6.09
2023-03-02T11:49:29.438Z,6.65
2023-03-02T11:50:31.243Z,10.25
2023-03-02T11:51:33.290Z,6.88
2023-03-02T11:52:35.290Z,6.77
2023-03-02T11:53:37.208Z,6.97
2023-03-02T11:54:39.069Z,6.93
2023-03-02T11:55:40.861Z,9.52
2023-03-02T11:56:42.749Z,9.24
2023-03-02T11:57:44.556Z,7.89
2023-03-02T11:58:46.443Z,9.55
2023-03-02T11:59:48.399Z,6.44
2023-03-02T12:00:50.196Z,10.73
2023-03-02T12:01:52.193Z,6.99
2023-03-02T12:02:54.475Z,9.53
2023-03-02T12:03:56.289Z,11.30
2023-03-02T12:04:58.405Z,9.41
2023-03-02T12:06:00.236Z,11.56
2023-03-02T12:07:02.087Z,9.76
2023-03-02T12:08:03.916Z,5.96
2023-03-02T12:09:05.845Z,10.47
2023-03-02T12:10:08.924Z,10.80
2023-03-02T12:11:10.745Z,9.29
2023-03-02T12:12:12.554Z,7.69
2023-03-02T12:13:14.372Z,6.93
2023-03-02T12:14:16.277Z,9.83
2023-03-02T12:15:19.126Z,9.58
2023-03-02T12:16:21.131Z,7.88
2023-03-02T12:17:22.974Z,7.87
2023-03-02T12:18:24.818Z,11.36
2023-03-02T12:19:26.662Z,9.44
2023-03-02T12:20:28.475Z,9.95
2023-03-02T12:21:30.268Z,9.72
2023-03-02T12:22:32.090Z,9.31
2023-03-02T12:23:33.896Z,9.36
2023-03-02T12:24:36.804Z,9.91
2023-03-02T12:25:38.660Z,8.47
2023-03-02T12:26:40.697Z,8.77
2023-03-02T12:27:42.502Z,6.77
2023-03-02T12:28:44.316Z,9.71
2023-03-02T12:29:46.308Z,9.59
2023-03-02T12:30:48.223Z,6.94
2023-03-02T12:31:50.169Z,8.95
2023-03-02T12:32:51.988Z,7.20
2023-03-02T12:33:53.817Z,7.46
2023-03-02T12:34:55.698Z,6.46
2023-03-02T12:35:57.516Z,9.77
2023-03-02T12:36:59.373Z,6.36
2023-03-02T12:38:01.230Z,8.37
2023-03-02T12:39:03.439Z,7.91
2023-03-02T12:40:05.295Z,8.71
2023-03-02T12:41:07.087Z,11.41
2023-03-02T12:42:08.929Z,11.19
2023-03-02T12:43:10.767Z,10.09
2023-03-02T12:44:12.666Z,7.28
2023-03-02T12:45:14.617Z,6.68
2023-03-02T12:46:16.811Z,8.13
2023-03-02T12:47:19.349Z,7.14
2023-03-02T12:48:21.412Z,6.59
2023-03-02T12:49:23.441Z,9.92
2023-03-02T12:50:25.337Z,11.86
2023-03-02T12:51:27.282Z,10.10
2023-03-02T12:52:29.192Z,11.20
2023-03-02T12:53:30.998Z,8.45
2023-03-02T12:54:32.791Z,9.55
2023-03-02T12:55:34.718Z,6.59
2023-03-02T12:56:36.879Z,5.84
2023-03-02T12:57:38.920Z,20.41
2023-03-02T12:58:40.727Z,16.08
2023-03-02T12:59:42.563Z,8.38
2023-03-02T13:00:44.670Z,9.68
2023-03-02T13:01:46.548Z,6.44
2023-03-02T13:02:48.471Z,7.40
2023-03-02T13:03:50.368Z,12.25
2023-03-02T13:04:52.176Z,7.49
2023-03-02T13:05:54.045Z,8.05
2023-03-02T13:06:55.832Z,8.54
2023-03-02T13:07:57.664Z,8.87
2023-03-02T13:08:59.506Z,7.52
2023-03-02T13:10:01.341Z,7.00
2023-03-02T13:11:03.325Z,7.72
2023-03-02T13:12:05.109Z,8.43
2023-03-02T13:13:07.135Z,8.14
2023-03-02T13:14:08.929Z,14.38
2023-03-02T13:15:10.742Z,15.19
2023-03-02T13:16:12.828Z,14.81
2023-03-02T13:17:14.630Z,8.51
2023-03-02T13:18:16.421Z,8.91
2023-03-02T13:19:18.236Z,8.15
2023-03-02T13:20:20.159Z,8.69
2023-03-02T13:21:22.044Z,10.13
2023-03-02T13:22:23.927Z,9.62
2023-03-02T13:23:25.697Z,7.46
2023-03-02T13:24:27.593Z,10.75